KMRY/MRY METAR and TAF weather

Enter ICAO airport designator
Station Type Date Time Source
KMRY METAR 2021/10/24 21:54 UTC NOAA

KMRY 242154Z 18015G28KT 10SM BKN021 BKN026 OVC050 20/14 A2972 RMK AO2 PK WND 18032/2058 SLP073 T02000144


Station Type Date Time Source
KMRY Decoded METAR 2021/10/24 21:54 UTC NOAA

MONTEREY PENINSULA AIRPORT, CA, United States (KMRY) 36-35N 121-51W 66M
Oct 24, 2021 - 05:54 PM EDT / 2021.10.24 2154 UTC
Wind: from the S (180 degrees) at 17 MPH (15 KT) gusting to 32 MPH (28 KT):0
Visibility: 10 mile(s):0
Sky conditions: overcast
Temperature: 68.0 F (20.0 C)
Dew Point: 57.9 F (14.4 C)
Relative Humidity: 70%
Pressure (altimeter): 29.72 in. Hg (1006 hPa)
ob: KMRY 242154Z 18015G28KT 10SM BKN021 BKN026 OVC050 20/14 A2972 RMK AO2 PK WND 18032/2058 SLP073 T02000144
cycle: 22

Station Type Date Time Source
KMRY TAF 2021/10/24 18:30 UTC NOAA

TAF KMRY 241726Z 2418/2518 19015G25KT P6SM VCSH OVC020 WS020/23050KT
FM242300 19020G30KT 4SM -RA BR OVC015 WS008/23050KT
FM250300 17016G23KT 4SM -RA BR OVC015 WS020/23045KT
FM251000 21014KT 2SM +RA BR OVC015
FM251500 23011KT 4SM -RA BR SCT015 OVC025

Example: see airport list